sensor_id;sensor_type;location;lat;lon;timestamp;temperature;humidity
9083;DHT22;4577;48.704;9.000;2024-02-23T00:00:11;6.00;99.90
9083;DHT22;4577;48.704;9.000;2024-02-23T00:02:38;6.30;99.90
9083;DHT22;4577;48.704;9.000;2024-02-23T00:05:04;6.00;99.90
9083;DHT22;4577;48.704;9.000;2024-02-23T00:07:30;6.20;99.90
9083;DHT22;4577;48.704;9.000;2024-02-23T00:09:55;6.00;99.90
9083;DHT22;4577;48.704;9.000;2024-02-23T00:12:21;5.80;99.90
9083;DHT22;4577;48.704;9.000;2024-02-23T00:14:47;6.10;99.90
9083;DHT22;4577;48.704;9.000;2024-02-23T00:17:12;6.00;99.90
9083;DHT22;4577;48.704;9.000;2024-02-23T00:19:38;5.90;99.90
9083;DHT22;4577;48.704;9.000;2024-02-23T00:22:04;6.00;99.90
9083;DHT22;4577;48.704;9.000;2024-02-23T00:24:29;6.00;99.90
9083;DHT22;4577;48.704;9.000;2024-02-23T00:26:55;6.00;99.90
9083;DHT22;4577;48.704;9.000;2024-02-23T00:29:21;6.30;99.90
9083;DHT22;4577;48.704;9.000;2024-02-23T00:31:47;5.60;99.90
9083;DHT22;4577;48.704;9.000;2024-02-23T00:34:13;6.10;99.90
9083;DHT22;4577;48.704;9.000;2024-02-23T00:36:40;6.10;99.90
9083;DHT22;4577;48.704;9.000;2024-02-23T00:39:07;6.20;99.90
9083;DHT22;4577;48.704;9.000;2024-02-23T00:41:34;6.20;99.90
9083;DHT22;4577;48.704;9.000;2024-02-23T00:44:00;6.10;99.90
9083;DHT22;4577;48.704;9.000;2024-02-23T00:46:26;6.20;99.90
9083;DHT22;4577;48.704;9.000;2024-02-23T00:51:18;6.20;99.90
9083;DHT22;4577;48.704;9.000;2024-02-23T00:53:43;6.30;99.90
9083;DHT22;4577;48.704;9.000;2024-02-23T00:56:09;6.10;99.90
9083;DHT22;4577;48.704;9.000;2024-02-23T00:58:35;6.20;99.90
9083;DHT22;4577;48.704;9.000;2024-02-23T01:03:26;6.20;99.90
9083;DHT22;4577;48.704;9.000;2024-02-23T01:08:19;6.30;99.90
9083;DHT22;4577;48.704;9.000;2024-02-23T01:10:45;6.10;99.90
9083;DHT22;4577;48.704;9.000;2024-02-23T01:13:10;6.30;99.90
9083;DHT22;4577;48.704;9.000;2024-02-23T01:15:37;6.00;99.90
9083;DHT22;4577;48.704;9.000;2024-02-23T01:18:04;6.30;99.90
9083;DHT22;4577;48.704;9.000;2024-02-23T01:20:31;6.20;99.90
9083;DHT22;4577;48.704;9.000;2024-02-23T01:22:57;6.40;99.90
9083;DHT22;4577;48.704;9.000;2024-02-23T01:30:15;6.60;99.90
9083;DHT22;4577;48.704;9.000;2024-02-23T01:32:40;6.30;99.90
9083;DHT22;4577;48.704;9.000;2024-02-23T01:35:06;6.00;99.90
9083;DHT22;4577;48.704;9.000;2024-02-23T01:37:33;6.20;99.90
9083;DHT22;4577;48.704;9.000;2024-02-23T01:39:59;6.30;99.90
9083;DHT22;4577;48.704;9.000;2024-02-23T01:42:26;6.20;99.90
9083;DHT22;4577;48.704;9.000;2024-02-23T01:47:18;6.10;99.90
9083;DHT22;4577;48.704;9.000;2024-02-23T01:49:45;5.60;99.90
9083;DHT22;4577;48.704;9.000;2024-02-23T01:52:13;6.50;99.90
9083;DHT22;4577;48.704;9.000;2024-02-23T01:54:39;6.30;99.90
9083;DHT22;4577;48.704;9.000;2024-02-23T01:57:06;6.20;99.90
9083;DHT22;4577;48.704;9.000;2024-02-23T01:59:35;6.10;99.90
9083;DHT22;4577;48.704;9.000;2024-02-23T02:02:03;6.20;99.90
9083;DHT22;4577;48.704;9.000;2024-02-23T02:04:29;6.20;99.90
9083;DHT22;4577;48.704;9.000;2024-02-23T02:06:55;6.10;99.90
9083;DHT22;4577;48.704;9.000;2024-02-23T02:09:21;6.70;99.90
9083;DHT22;4577;48.704;9.000;2024-02-23T02:11:50;6.10;99.90
9083;DHT22;4577;48.704;9.000;2024-02-23T02:14:16;6.30;99.90
9083;DHT22;4577;48.704;9.000;2024-02-23T02:16:42;6.20;99.90
9083;DHT22;4577;48.704;9.000;2024-02-23T02:19:09;6.00;99.90
9083;DHT22;4577;48.704;9.000;2024-02-23T02:21:36;6.20;99.90
9083;DHT22;4577;48.704;9.000;2024-02-23T02:24:02;6.10;99.90
9083;DHT22;4577;48.704;9.000;2024-02-23T02:28:54;6.00;99.90
9083;DHT22;4577;48.704;9.000;2024-02-23T02:31:20;6.00;99.90
9083;DHT22;4577;48.704;9.000;2024-02-23T02:33:46;6.00;99.90
9083;DHT22;4577;48.704;9.000;2024-02-23T02:36:11;5.90;99.90
9083;DHT22;4577;48.704;9.000;2024-02-23T02:38:37;5.80;99.90
9083;DHT22;4577;48.704;9.000;2024-02-23T02:41:03;6.00;99.90
9083;DHT22;4577;48.704;9.000;2024-02-23T02:43:29;5.80;99.90
9083;DHT22;4577;48.704;9.000;2024-02-23T02:45:54;6.20;99.90
9083;DHT22;4577;48.704;9.000;2024-02-23T02:48:20;5.70;99.90
9083;DHT22;4577;48.704;9.000;2024-02-23T02:50:46;5.70;99.90
9083;DHT22;4577;48.704;9.000;2024-02-23T02:53:11;6.00;99.90
9083;DHT22;4577;48.704;9.000;2024-02-23T02:55:41;5.80;98.90
9083;DHT22;4577;48.704;9.000;2024-02-23T03:00:33;5.70;97.70
9083;DHT22;4577;48.704;9.000;2024-02-23T03:02:59;6.00;99.60
9083;DHT22;4577;48.704;9.000;2024-02-23T03:05:24;5.60;97.90
9083;DHT22;4577;48.704;9.000;2024-02-23T03:07:50;6.10;97.60
9083;DHT22;4577;48.704;9.000;2024-02-23T03:10:16;5.70;97.30
9083;DHT22;4577;48.704;9.000;2024-02-23T03:15:08;5.40;97.10
9083;DHT22;4577;48.704;9.000;2024-02-23T03:20:02;5.50;96.60
9083;DHT22;4577;48.704;9.000;2024-02-23T03:22:31;5.40;97.20
9083;DHT22;4577;48.704;9.000;2024-02-23T03:24:56;5.80;97.90
9083;DHT22;4577;48.704;9.000;2024-02-23T03:27:28;5.40;96.60
9083;DHT22;4577;48.704;9.000;2024-02-23T03:29:54;5.40;98.60
9083;DHT22;4577;48.704;9.000;2024-02-23T03:32:20;5.40;98.70
9083;DHT22;4577;48.704;9.000;2024-02-23T03:34:46;5.20;96.50
9083;DHT22;4577;48.704;9.000;2024-02-23T03:37:11;5.30;96.70
9083;DHT22;4577;48.704;9.000;2024-02-23T03:42:04;5.90;96.00
9083;DHT22;4577;48.704;9.000;2024-02-23T03:46:57;5.50;97.80
9083;DHT22;4577;48.704;9.000;2024-02-23T03:51:48;5.40;97.70
9083;DHT22;4577;48.704;9.000;2024-02-23T03:54:14;5.40;96.20
9083;DHT22;4577;48.704;9.000;2024-02-23T03:56:41;5.50;96.20
9083;DHT22;4577;48.704;9.000;2024-02-23T03:59:07;5.60;95.80
9083;DHT22;4577;48.704;9.000;2024-02-23T04:01:37;5.60;95.80
9083;DHT22;4577;48.704;9.000;2024-02-23T04:04:03;5.60;97.50
9083;DHT22;4577;48.704;9.000;2024-02-23T04:08:55;6.30;97.40
9083;DHT22;4577;48.704;9.000;2024-02-23T04:13:47;5.50;95.70
9083;DHT22;4577;48.704;9.000;2024-02-23T04:16:13;5.40;97.00
9083;DHT22;4577;48.704;9.000;2024-02-23T04:21:05;5.30;96.20
9083;DHT22;4577;48.704;9.000;2024-02-23T04:23:30;5.20;95.80
9083;DHT22;4577;48.704;9.000;2024-02-23T04:25:56;4.70;94.80
9083;DHT22;4577;48.704;9.000;2024-02-23T04:28:21;5.30;95.00
9083;DHT22;4577;48.704;9.000;2024-02-23T04:30:47;5.20;96.00
9083;DHT22;4577;48.704;9.000;2024-02-23T04:33:13;5.10;96.60
9083;DHT22;4577;48.704;9.000;2024-02-23T04:35:39;5.10;95.20
9083;DHT22;4577;48.704;9.000;2024-02-23T04:38:04;5.60;95.70
9083;DHT22;4577;48.704;9.000;2024-02-23T04:45:22;5.20;96.90
9083;DHT22;4577;48.704;9.000;2024-02-23T04:47:48;5.20;97.10
9083;DHT22;4577;48.704;9.000;2024-02-23T04:52:40;5.10;95.60
9083;DHT22;4577;48.704;9.000;2024-02-23T04:55:06;5.20;95.60
9083;DHT22;4577;48.704;9.000;2024-02-23T04:57:32;5.20;96.50
9083;DHT22;4577;48.704;9.000;2024-02-23T04:59:57;4.60;94.10
9083;DHT22;4577;48.704;9.000;2024-02-23T05:02:23;5.10;96.40
9083;DHT22;4577;48.704;9.000;2024-02-23T05:04:49;5.20;95.10
9083;DHT22;4577;48.704;9.000;2024-02-23T05:07:15;5.10;97.30
9083;DHT22;4577;48.704;9.000;2024-02-23T05:09:40;5.20;95.70
9083;DHT22;4577;48.704;9.000;2024-02-23T05:12:07;5.20;95.50
9083;DHT22;4577;48.704;9.000;2024-02-23T05:14:33;5.30;95.40
9083;DHT22;4577;48.704;9.000;2024-02-23T05:16:59;6.00;97.40
9083;DHT22;4577;48.704;9.000;2024-02-23T05:26:43;5.30;95.60
9083;DHT22;4577;48.704;9.000;2024-02-23T05:29:10;5.10;97.50
9083;DHT22;4577;48.704;9.000;2024-02-23T05:31:49;5.50;95.80
9083;DHT22;4577;48.704;9.000;2024-02-23T05:34:14;5.40;95.90
9083;DHT22;4577;48.704;9.000;2024-02-23T05:36:40;5.30;96.00
9083;DHT22;4577;48.704;9.000;2024-02-23T05:41:33;6.10;96.20
9083;DHT22;4577;48.704;9.000;2024-02-23T05:48:51;5.00;96.40
9083;DHT22;4577;48.704;9.000;2024-02-23T05:51:16;5.40;96.60
9083;DHT22;4577;48.704;9.000;2024-02-23T05:58:35;5.80;97.30
9083;DHT22;4577;48.704;9.000;2024-02-23T06:10:45;4.80;98.90
9083;DHT22;4577;48.704;9.000;2024-02-23T06:15:37;4.80;98.80
9083;DHT22;4577;48.704;9.000;2024-02-23T06:18:04;5.10;97.90
9083;DHT22;4577;48.704;9.000;2024-02-23T06:20:29;5.10;99.10
9083;DHT22;4577;48.704;9.000;2024-02-23T06:22:56;5.00;98.30
9083;DHT22;4577;48.704;9.000;2024-02-23T06:25:21;5.50;99.90
9083;DHT22;4577;48.704;9.000;2024-02-23T06:32:39;4.80;99.90
9083;DHT22;4577;48.704;9.000;2024-02-23T06:37:35;5.10;99.90
9083;DHT22;4577;48.704;9.000;2024-02-23T06:49:46;5.10;99.90
9083;DHT22;4577;48.704;9.000;2024-02-23T06:52:12;4.90;99.90
9083;DHT22;4577;48.704;9.000;2024-02-23T06:54:37;5.00;99.90
9083;DHT22;4577;48.704;9.000;2024-02-23T06:59:29;5.70;99.90
9083;DHT22;4577;48.704;9.000;2024-02-23T07:01:55;5.00;99.90
9083;DHT22;4577;48.704;9.000;2024-02-23T07:04:21;4.70;99.90
9083;DHT22;4577;48.704;9.000;2024-02-23T07:11:39;5.50;99.90
9083;DHT22;4577;48.704;9.000;2024-02-23T07:14:07;5.30;99.90
9083;DHT22;4577;48.704;9.000;2024-02-23T07:16:37;5.30;99.90
9083;DHT22;4577;48.704;9.000;2024-02-23T07:21:30;5.40;99.90
9083;DHT22;4577;48.704;9.000;2024-02-23T07:26:22;5.40;99.60
9083;DHT22;4577;48.704;9.000;2024-02-23T07:28:48;4.90;99.90
9083;DHT22;4577;48.704;9.000;2024-02-23T07:33:42;5.00;99.90
9083;DHT22;4577;48.704;9.000;2024-02-23T07:41:00;5.10;99.90
9083;DHT22;4577;48.704;9.000;2024-02-23T07:43:26;5.30;99.90
9083;DHT22;4577;48.704;9.000;2024-02-23T07:45:53;5.30;99.90
9083;DHT22;4577;48.704;9.000;2024-02-23T07:50:45;5.00;99.90
9083;DHT22;4577;48.704;9.000;2024-02-23T07:53:11;5.00;99.30
9083;DHT22;4577;48.704;9.000;2024-02-23T07:58:02;5.30;99.90
9083;DHT22;4577;48.704;9.000;2024-02-23T08:02:54;5.20;99.90
9083;DHT22;4577;48.704;9.000;2024-02-23T08:05:22;5.00;98.80
9083;DHT22;4577;48.704;9.000;2024-02-23T08:07:49;5.50;99.00
9083;DHT22;4577;48.704;9.000;2024-02-23T08:12:41;5.10;98.70
9083;DHT22;4577;48.704;9.000;2024-02-23T08:15:07;5.20;98.30
9083;DHT22;4577;48.704;9.000;2024-02-23T08:17:33;5.20;98.50
9083;DHT22;4577;48.704;9.000;2024-02-23T08:19:58;4.90;99.10
9083;DHT22;4577;48.704;9.000;2024-02-23T08:22:24;4.80;97.80
9083;DHT22;4577;48.704;9.000;2024-02-23T08:24:50;5.20;98.10
9083;DHT22;4577;48.704;9.000;2024-02-23T08:29:41;5.60;97.90
9083;DHT22;4577;48.704;9.000;2024-02-23T08:34:33;5.30;97.80
9083;DHT22;4577;48.704;9.000;2024-02-23T08:37:00;5.10;97.10
9083;DHT22;4577;48.704;9.000;2024-02-23T08:39:26;5.20;98.40
9083;DHT22;4577;48.704;9.000;2024-02-23T08:41:52;5.10;97.00
9083;DHT22;4577;48.704;9.000;2024-02-23T08:44:19;5.20;97.40
9083;DHT22;4577;48.704;9.000;2024-02-23T08:46:44;5.10;97.30
9083;DHT22;4577;48.704;9.000;2024-02-23T08:49:10;5.00;99.20
9083;DHT22;4577;48.704;9.000;2024-02-23T08:51:35;5.10;99.40
9083;DHT22;4577;48.704;9.000;2024-02-23T08:54:02;5.00;98.90
9083;DHT22;4577;48.704;9.000;2024-02-23T08:56:30;5.00;97.10
9083;DHT22;4577;48.704;9.000;2024-02-23T08:58:56;5.00;99.10
9083;DHT22;4577;48.704;9.000;2024-02-23T09:03:48;4.90;97.00
9083;DHT22;4577;48.704;9.000;2024-02-23T09:08:40;5.00;99.00
9083;DHT22;4577;48.704;9.000;2024-02-23T09:11:06;4.80;96.80
9083;DHT22;4577;48.704;9.000;2024-02-23T09:13:32;4.90;96.80
9083;DHT22;4577;48.704;9.000;2024-02-23T09:18:24;4.90;97.10
9083;DHT22;4577;48.704;9.000;2024-02-23T09:20:50;4.80;99.20
9083;DHT22;4577;48.704;9.000;2024-02-23T09:23:16;4.90;97.50
9083;DHT22;4577;48.704;9.000;2024-02-23T09:25:41;4.90;97.10
9083;DHT22;4577;48.704;9.000;2024-02-23T09:28:07;4.70;96.90
9083;DHT22;4577;48.704;9.000;2024-02-23T09:32:59;5.00;97.20
9083;DHT22;4577;48.704;9.000;2024-02-23T09:35:24;5.00;98.90
9083;DHT22;4577;48.704;9.000;2024-02-23T09:42:42;5.10;96.80
9083;DHT22;4577;48.704;9.000;2024-02-23T09:45:11;5.30;95.90
9083;DHT22;4577;48.704;9.000;2024-02-23T09:47:37;5.50;96.40
9083;DHT22;4577;48.704;9.000;2024-02-23T09:50:04;5.50;97.50
9083;DHT22;4577;48.704;9.000;2024-02-23T09:52:32;5.40;95.40
9083;DHT22;4577;48.704;9.000;2024-02-23T09:54:58;5.40;95.50
9083;DHT22;4577;48.704;9.000;2024-02-23T09:57:23;5.50;95.60
9083;DHT22;4577;48.704;9.000;2024-02-23T09:59:50;5.60;95.00
9083;DHT22;4577;48.704;9.000;2024-02-23T10:02:17;5.70;95.00
9083;DHT22;4577;48.704;9.000;2024-02-23T10:04:43;5.70;94.90
9083;DHT22;4577;48.704;9.000;2024-02-23T10:09:36;6.00;94.40
9083;DHT22;4577;48.704;9.000;2024-02-23T10:12:02;6.10;95.40
9083;DHT22;4577;48.704;9.000;2024-02-23T10:14:28;5.80;93.60
9083;DHT22;4577;48.704;9.000;2024-02-23T10:16:54;6.00;94.00
9083;DHT22;4577;48.704;9.000;2024-02-23T10:19:21;6.00;94.20
9083;DHT22;4577;48.704;9.000;2024-02-23T10:21:47;6.20;94.70
9083;DHT22;4577;48.704;9.000;2024-02-23T10:24:16;6.10;96.10
9083;DHT22;4577;48.704;9.000;2024-02-23T10:29:08;6.40;94.40
9083;DHT22;4577;48.704;9.000;2024-02-23T10:31:35;6.20;95.00
9083;DHT22;4577;48.704;9.000;2024-02-23T10:34:09;6.10;94.70
9083;DHT22;4577;48.704;9.000;2024-02-23T10:36:41;6.20;93.10
9083;DHT22;4577;48.704;9.000;2024-02-23T10:39:08;6.20;94.30
9083;DHT22;4577;48.704;9.000;2024-02-23T10:41:39;6.50;94.50
9083;DHT22;4577;48.704;9.000;2024-02-23T10:44:09;6.60;93.10
9083;DHT22;4577;48.704;9.000;2024-02-23T10:46:37;6.70;92.60
9083;DHT22;4577;48.704;9.000;2024-02-23T10:49:03;6.50;94.40
9083;DHT22;4577;48.704;9.000;2024-02-23T10:51:30;6.60;94.40
9083;DHT22;4577;48.704;9.000;2024-02-23T10:53:57;6.60;91.90
9083;DHT22;4577;48.704;9.000;2024-02-23T10:58:50;6.70;93.30
9083;DHT22;4577;48.704;9.000;2024-02-23T11:01:16;6.50;91.70
9083;DHT22;4577;48.704;9.000;2024-02-23T11:03:47;6.50;93.60
9083;DHT22;4577;48.704;9.000;2024-02-23T11:06:16;6.60;92.40
9083;DHT22;4577;48.704;9.000;2024-02-23T11:11:15;6.80;91.30
9083;DHT22;4577;48.704;9.000;2024-02-23T11:13:43;6.70;92.40
9083;DHT22;4577;48.704;9.000;2024-02-23T11:18:38;6.90;91.00
9083;DHT22;4577;48.704;9.000;2024-02-23T11:21:05;6.70;90.80
9083;DHT22;4577;48.704;9.000;2024-02-23T11:23:49;6.80;91.00
9083;DHT22;4577;48.704;9.000;2024-02-23T11:26:17;6.80;92.90
9083;DHT22;4577;48.704;9.000;2024-02-23T11:28:52;7.10;90.40
9083;DHT22;4577;48.704;9.000;2024-02-23T11:31:20;6.60;90.60
9083;DHT22;4577;48.704;9.000;2024-02-23T11:33:51;6.80;92.20
9083;DHT22;4577;48.704;9.000;2024-02-23T11:36:32;6.90;92.10
9083;DHT22;4577;48.704;9.000;2024-02-23T11:39:00;6.70;90.50
9083;DHT22;4577;48.704;9.000;2024-02-23T11:41:27;6.90;90.10
9083;DHT22;4577;48.704;9.000;2024-02-23T11:43:54;6.90;92.10
9083;DHT22;4577;48.704;9.000;2024-02-23T11:46:29;7.30;90.90
9083;DHT22;4577;48.704;9.000;2024-02-23T11:51:21;7.30;91.40
9083;DHT22;4577;48.704;9.000;2024-02-23T11:53:48;7.20;88.20
9083;DHT22;4577;48.704;9.000;2024-02-23T11:56:14;7.70;91.60
9083;DHT22;4577;48.704;9.000;2024-02-23T11:58:41;7.20;88.30
9083;DHT22;4577;48.704;9.000;2024-02-23T12:06:02;7.20;88.10
9083;DHT22;4577;48.704;9.000;2024-02-23T12:08:30;7.30;89.70
9083;DHT22;4577;48.704;9.000;2024-02-23T12:11:03;7.50;88.20
9083;DHT22;4577;48.704;9.000;2024-02-23T12:13:29;7.40;87.20
9083;DHT22;4577;48.704;9.000;2024-02-23T12:15:55;7.00;90.40
9083;DHT22;4577;48.704;9.000;2024-02-23T12:18:22;7.40;87.50
9083;DHT22;4577;48.704;9.000;2024-02-23T12:20:59;7.60;87.60
9083;DHT22;4577;48.704;9.000;2024-02-23T12:25:59;7.50;87.80
9083;DHT22;4577;48.704;9.000;2024-02-23T12:28:26;7.30;85.90
9083;DHT22;4577;48.704;9.000;2024-02-23T12:31:03;7.60;87.00
9083;DHT22;4577;48.704;9.000;2024-02-23T12:33:33;7.60;89.50
9083;DHT22;4577;48.704;9.000;2024-02-23T12:36:04;7.40;88.50
9083;DHT22;4577;48.704;9.000;2024-02-23T12:38:30;7.40;89.10
9083;DHT22;4577;48.704;9.000;2024-02-23T12:43:23;7.30;86.40
9083;DHT22;4577;48.704;9.000;2024-02-23T12:45:53;7.40;86.00
9083;DHT22;4577;48.704;9.000;2024-02-23T12:48:19;7.30;84.70
9083;DHT22;4577;48.704;9.000;2024-02-23T12:50:47;7.30;83.60
9083;DHT22;4577;48.704;9.000;2024-02-23T12:56:09;8.20;85.10
9083;DHT22;4577;48.704;9.000;2024-02-23T12:58:36;6.90;88.50
9083;DHT22;4577;48.704;9.000;2024-02-23T13:01:02;7.40;86.00
9083;DHT22;4577;48.704;9.000;2024-02-23T13:03:28;7.40;89.30
9083;DHT22;4577;48.704;9.000;2024-02-23T13:05:57;7.50;85.50
9083;DHT22;4577;48.704;9.000;2024-02-23T13:08:24;7.50;89.00
9083;DHT22;4577;48.704;9.000;2024-02-23T13:10:50;7.40;85.10
9083;DHT22;4577;48.704;9.000;2024-02-23T13:13:16;7.50;85.80
9083;DHT22;4577;48.704;9.000;2024-02-23T13:15:43;7.60;85.60
9083;DHT22;4577;48.704;9.000;2024-02-23T13:20:36;7.70;84.40
9083;DHT22;4577;48.704;9.000;2024-02-23T13:25:28;7.60;86.00
9083;DHT22;4577;48.704;9.000;2024-02-23T13:27:54;7.90;90.50
9083;DHT22;4577;48.704;9.000;2024-02-23T13:32:46;7.50;90.10
9083;DHT22;4577;48.704;9.000;2024-02-23T13:37:40;8.00;87.70
9083;DHT22;4577;48.704;9.000;2024-02-23T13:40:06;7.60;91.10
9083;DHT22;4577;48.704;9.000;2024-02-23T13:42:34;7.70;88.70
9083;DHT22;4577;48.704;9.000;2024-02-23T13:45:00;7.70;89.40
9083;DHT22;4577;48.704;9.000;2024-02-23T13:47:26;7.80;88.80
9083;DHT22;4577;48.704;9.000;2024-02-23T13:49:51;7.90;91.60
9083;DHT22;4577;48.704;9.000;2024-02-23T13:52:17;8.20;89.00
9083;DHT22;4577;48.704;9.000;2024-02-23T13:57:09;8.30;86.70
9083;DHT22;4577;48.704;9.000;2024-02-23T13:59:34;8.40;88.60
9083;DHT22;4577;48.704;9.000;2024-02-23T14:02:00;8.10;86.00
9083;DHT22;4577;48.704;9.000;2024-02-23T14:04:26;8.20;85.90
9083;DHT22;4577;48.704;9.000;2024-02-23T14:06:51;8.20;86.10
9083;DHT22;4577;48.704;9.000;2024-02-23T14:09:17;8.20;89.00
9083;DHT22;4577;48.704;9.000;2024-02-23T14:11:43;8.20;84.80
9083;DHT22;4577;48.704;9.000;2024-02-23T14:14:10;8.30;89.60
9083;DHT22;4577;48.704;9.000;2024-02-23T14:16:36;8.80;85.50
9083;DHT22;4577;48.704;9.000;2024-02-23T14:19:02;8.10;89.00
9083;DHT22;4577;48.704;9.000;2024-02-23T14:21:27;8.70;88.10
9083;DHT22;4577;48.704;9.000;2024-02-23T14:23:53;8.90;87.30
9083;DHT22;4577;48.704;9.000;2024-02-23T14:26:20;9.20;85.90
9083;DHT22;4577;48.704;9.000;2024-02-23T14:31:12;8.90;82.20
9083;DHT22;4577;48.704;9.000;2024-02-23T14:33:37;8.80;84.60
9083;DHT22;4577;48.704;9.000;2024-02-23T14:40:56;8.50;81.20
9083;DHT22;4577;48.704;9.000;2024-02-23T14:50:43;8.10;82.40
9083;DHT22;4577;48.704;9.000;2024-02-23T15:00:28;8.10;86.20
9083;DHT22;4577;48.704;9.000;2024-02-23T15:02:56;8.20;88.50
9083;DHT22;4577;48.704;9.000;2024-02-23T15:05:22;8.30;85.50
9083;DHT22;4577;48.704;9.000;2024-02-23T15:12:40;8.30;83.30
9083;DHT22;4577;48.704;9.000;2024-02-23T15:15:07;8.50;83.20
9083;DHT22;4577;48.704;9.000;2024-02-23T15:22:25;8.60;88.60
9083;DHT22;4577;48.704;9.000;2024-02-23T15:24:51;8.40;84.60
9083;DHT22;4577;48.704;9.000;2024-02-23T15:27:18;8.20;83.70
9083;DHT22;4577;48.704;9.000;2024-02-23T15:29:46;8.30;83.70
9083;DHT22;4577;48.704;9.000;2024-02-23T15:32:13;8.50;83.30
9083;DHT22;4577;48.704;9.000;2024-02-23T15:34:40;8.30;82.80
9083;DHT22;4577;48.704;9.000;2024-02-23T15:39:33;7.90;90.90
9083;DHT22;4577;48.704;9.000;2024-02-23T15:41:58;8.30;90.00
9083;DHT22;4577;48.704;9.000;2024-02-23T15:49:16;8.50;88.40
9083;DHT22;4577;48.704;9.000;2024-02-23T15:51:45;8.30;88.00
9083;DHT22;4577;48.704;9.000;2024-02-23T15:56:38;8.10;85.30
9083;DHT22;4577;48.704;9.000;2024-02-23T16:01:37;8.10;85.50
9083;DHT22;4577;48.704;9.000;2024-02-23T16:04:03;8.10;86.00
9083;DHT22;4577;48.704;9.000;2024-02-23T16:08:59;7.90;86.00
9083;DHT22;4577;48.704;9.000;2024-02-23T16:11:25;8.00;86.10
9083;DHT22;4577;48.704;9.000;2024-02-23T16:13:52;8.00;89.90
9083;DHT22;4577;48.704;9.000;2024-02-23T16:26:06;7.80;89.50
9083;DHT22;4577;48.704;9.000;2024-02-23T16:28:32;8.10;90.10
9083;DHT22;4577;48.704;9.000;2024-02-23T16:30:58;8.20;88.10
9083;DHT22;4577;48.704;9.000;2024-02-23T16:35:50;8.00;90.30
9083;DHT22;4577;48.704;9.000;2024-02-23T16:38:15;7.90;87.90
9083;DHT22;4577;48.704;9.000;2024-02-23T16:40:41;7.90;89.00
9083;DHT22;4577;48.704;9.000;2024-02-23T16:47:59;7.50;91.00
9083;DHT22;4577;48.704;9.000;2024-02-23T16:57:46;7.60;88.40
9083;DHT22;4577;48.704;9.000;2024-02-23T17:00:12;7.70;91.30
9083;DHT22;4577;48.704;9.000;2024-02-23T17:05:04;7.80;90.40
9083;DHT22;4577;48.704;9.000;2024-02-23T17:07:30;7.80;91.30
9083;DHT22;4577;48.704;9.000;2024-02-23T17:09:57;7.80;91.00
9083;DHT22;4577;48.704;9.000;2024-02-23T17:14:49;7.50;90.90
9083;DHT22;4577;48.704;9.000;2024-02-23T17:17:15;7.90;90.80
9083;DHT22;4577;48.704;9.000;2024-02-23T17:19:44;7.70;90.30
9083;DHT22;4577;48.704;9.000;2024-02-23T17:22:10;7.70;90.80
9083;DHT22;4577;48.704;9.000;2024-02-23T17:24:35;7.40;91.80
9083;DHT22;4577;48.704;9.000;2024-02-23T17:29:27;7.50;90.30
9083;DHT22;4577;48.704;9.000;2024-02-23T17:34:19;7.60;90.50
9083;DHT22;4577;48.704;9.000;2024-02-23T17:39:14;7.30;90.40
9083;DHT22;4577;48.704;9.000;2024-02-23T17:41:43;7.30;90.30
9083;DHT22;4577;48.704;9.000;2024-02-23T17:44:09;7.40;91.30
9083;DHT22;4577;48.704;9.000;2024-02-23T17:46:35;7.30;90.70
9083;DHT22;4577;48.704;9.000;2024-02-23T17:51:28;7.30;91.90
9083;DHT22;4577;48.704;9.000;2024-02-23T17:56:24;7.30;90.00
9083;DHT22;4577;48.704;9.000;2024-02-23T17:58:51;7.30;89.90
9083;DHT22;4577;48.704;9.000;2024-02-23T18:01:18;7.30;90.00
9083;DHT22;4577;48.704;9.000;2024-02-23T18:03:43;7.00;90.10
9083;DHT22;4577;48.704;9.000;2024-02-23T18:06:09;7.00;91.40
9083;DHT22;4577;48.704;9.000;2024-02-23T18:08:35;6.90;89.20
9083;DHT22;4577;48.704;9.000;2024-02-23T18:11:02;7.00;90.60
9083;DHT22;4577;48.704;9.000;2024-02-23T18:15:54;7.00;89.00
9083;DHT22;4577;48.704;9.000;2024-02-23T18:20:46;6.70;90.40
9083;DHT22;4577;48.704;9.000;2024-02-23T18:23:12;7.20;90.30
9083;DHT22;4577;48.704;9.000;2024-02-23T18:25:38;7.50;91.30
9083;DHT22;4577;48.704;9.000;2024-02-23T18:30:29;7.90;91.90
9083;DHT22;4577;48.704;9.000;2024-02-23T18:32:55;7.30;91.10
9083;DHT22;4577;48.704;9.000;2024-02-23T18:37:47;7.20;91.60
9083;DHT22;4577;48.704;9.000;2024-02-23T18:40:12;7.90;90.10
9083;DHT22;4577;48.704;9.000;2024-02-23T18:42:38;7.10;91.40
9083;DHT22;4577;48.704;9.000;2024-02-23T18:45:07;7.00;88.60
9083;DHT22;4577;48.704;9.000;2024-02-23T18:47:33;7.00;88.70
9083;DHT22;4577;48.704;9.000;2024-02-23T18:52:25;6.70;91.30
9083;DHT22;4577;48.704;9.000;2024-02-23T18:57:18;6.80;90.70
9083;DHT22;4577;48.704;9.000;2024-02-23T19:07:02;7.10;91.40
9083;DHT22;4577;48.704;9.000;2024-02-23T19:19:12;6.50;91.50
9083;DHT22;4577;48.704;9.000;2024-02-23T19:21:37;6.60;89.50
9083;DHT22;4577;48.704;9.000;2024-02-23T19:28:55;6.60;91.80
9083;DHT22;4577;48.704;9.000;2024-02-23T19:33:50;6.50;89.40
9083;DHT22;4577;48.704;9.000;2024-02-23T19:36:15;6.50;91.60
9083;DHT22;4577;48.704;9.000;2024-02-23T19:38:41;6.50;89.80
9083;DHT22;4577;48.704;9.000;2024-02-23T19:43:33;6.20;89.60
9083;DHT22;4577;48.704;9.000;2024-02-23T19:45:59;6.50;91.60
9083;DHT22;4577;48.704;9.000;2024-02-23T19:53:17;6.60;91.40
9083;DHT22;4577;48.704;9.000;2024-02-23T19:55:43;6.50;87.80
9083;DHT22;4577;48.704;9.000;2024-02-23T20:00:35;6.20;91.30
9083;DHT22;4577;48.704;9.000;2024-02-23T20:03:04;6.40;89.40
9083;DHT22;4577;48.704;9.000;2024-02-23T20:05:30;6.50;91.40
9083;DHT22;4577;48.704;9.000;2024-02-23T20:07:56;6.60;90.80
9083;DHT22;4577;48.704;9.000;2024-02-23T20:10:21;6.30;90.30
9083;DHT22;4577;48.704;9.000;2024-02-23T20:12:48;6.10;91.10
9083;DHT22;4577;48.704;9.000;2024-02-23T20:17:42;5.80;89.40
9083;DHT22;4577;48.704;9.000;2024-02-23T20:20:12;6.10;89.70
9083;DHT22;4577;48.704;9.000;2024-02-23T20:22:38;5.80;91.50
9083;DHT22;4577;48.704;9.000;2024-02-23T20:25:04;5.80;88.00
9083;DHT22;4577;48.704;9.000;2024-02-23T20:34:49;6.10;88.20
9083;DHT22;4577;48.704;9.000;2024-02-23T20:37:15;5.80;89.40
9083;DHT22;4577;48.704;9.000;2024-02-23T20:39:41;5.80;91.00
9083;DHT22;4577;48.704;9.000;2024-02-23T20:57:18;6.00;91.90
9083;DHT22;4577;48.704;9.000;2024-02-23T20:59:44;5.80;91.70
9083;DHT22;4577;48.704;9.000;2024-02-23T21:02:10;5.60;89.70
9083;DHT22;4577;48.704;9.000;2024-02-23T21:04:35;5.80;90.00
9083;DHT22;4577;48.704;9.000;2024-02-23T21:07:04;5.70;92.30
9083;DHT22;4577;48.704;9.000;2024-02-23T21:09:30;6.40;90.60
9083;DHT22;4577;48.704;9.000;2024-02-23T21:11:56;5.80;90.40
9083;DHT22;4577;48.704;9.000;2024-02-23T21:14:22;5.60;92.20
9083;DHT22;4577;48.704;9.000;2024-02-23T21:16:48;5.80;92.30
9083;DHT22;4577;48.704;9.000;2024-02-23T21:21:42;5.50;92.40
9083;DHT22;4577;48.704;9.000;2024-02-23T21:24:08;5.60;90.60
9083;DHT22;4577;48.704;9.000;2024-02-23T21:26:34;5.60;92.50
9083;DHT22;4577;48.704;9.000;2024-02-23T21:29:01;5.60;92.60
9083;DHT22;4577;48.704;9.000;2024-02-23T21:31:27;5.10;90.30
9083;DHT22;4577;48.704;9.000;2024-02-23T21:33:52;5.40;90.50
9083;DHT22;4577;48.704;9.000;2024-02-23T21:36:22;5.10;90.80
9083;DHT22;4577;48.704;9.000;2024-02-23T21:38:49;5.00;93.00
9083;DHT22;4577;48.704;9.000;2024-02-23T21:41:14;4.60;93.20
9083;DHT22;4577;48.704;9.000;2024-02-23T21:43:42;5.00;91.50
9083;DHT22;4577;48.704;9.000;2024-02-23T21:46:08;5.30;93.60
9083;DHT22;4577;48.704;9.000;2024-02-23T21:48:43;5.10;93.20
9083;DHT22;4577;48.704;9.000;2024-02-23T21:51:12;5.00;91.50
9083;DHT22;4577;48.704;9.000;2024-02-23T21:53:38;5.00;91.40
9083;DHT22;4577;48.704;9.000;2024-02-23T21:56:04;4.80;93.30
9083;DHT22;4577;48.704;9.000;2024-02-23T21:58:35;5.10;91.50